^^
Marion, Virginia Banner
 

Adwolf, VA. Station Historical Data
[ Providing Data Since 6/07/2007 ]
Station Historical Data
 
Daily Summary for April 28, 2017 Units:  Both    English   Metric
« Previous Day
Next Day »
Daily Weekly Monthly Yearly Custom
  Current: High: Low: Average:
Temperature: 72.7 °F /  22.6 °C 88.7 °F /  31.5 °C 55.0 °F /  12.8 °C 69.4 °F /  20.8 °C
Dew Point: 62.3 °F /  16.8 °C 64.4 °F /  18 °C 54.3 °F /  12.4 °C 58.4 °F /  14.7 °C
Humidity: 70% 98% 34% 74%
Wind Speed: 0.0mph /  0km/h 10.4mph /  16.7km/h - 2.7mph /  4.3km/h
Wind Gust: 0.0mph /  0km/h 10.4mph /  16.7km/h - -
WindCalm - - ESE
Pressure: 30.01 in /  1016.1 hPa 30.04 in /  1017.2 hPa 29.90 in /  1012.4 hPa -
Precipitation: 0.01 in /  0.25 mm      
Historical Graphs
 
 
Tabular Data for April 28, 2017
Time Temperature Dew Point Pressure Wind Wind Speed Wind Gust Humidity Rainfall Rate (Hourly) solar Conditions
00:02 59.9 °F /  15.5 °C 59.0 °F /  15 °C 29.91in /  1012.8hPa Calm     97% 0.00in /  0mm WeatherDisplay:10.37 W/m2 RA
00:07 59.8 °F /  15.4 °C 58.9 °F /  14.9 °C 29.91in /  1012.8hPa Calm     97% 0.00in /  0mm WeatherDisplay:10.37 W/m2 RA
00:12 59.7 °F /  15.4 °C 58.8 °F /  14.9 °C 29.90in /  1012.4hPa NE 1.2mph /  1.9km/h 1.2mph /  1.9km/h 97% 0.00in /  0mm WeatherDisplay:10.37 W/m2 OVC
00:17 59.6 °F /  15.3 °C 58.7 °F /  14.8 °C 29.90in /  1012.4hPa NE 1.2mph /  1.9km/h 1.2mph /  1.9km/h 97% 0.00in /  0mm WeatherDisplay:10.37 W/m2 OVC
00:22 59.5 °F /  15.3 °C 58.6 °F /  14.8 °C 29.90in /  1012.4hPa NE 1.0mph /  1.6km/h 1.0mph /  1.6km/h 97% 0.00in /  0mm WeatherDisplay:10.37 W/m2 OVC
00:27 59.3 °F /  15.2 °C 58.4 °F /  14.7 °C 29.90in /  1012.4hPa NE 1.2mph /  1.9km/h 1.2mph /  1.9km/h 97% 0.00in /  0mm WeatherDisplay:10.37 W/m2 OVC
00:32 59.2 °F /  15.1 °C 58.3 °F /  14.6 °C 29.90in /  1012.4hPa NE 1.2mph /  1.9km/h   97% 0.00in /  0mm WeatherDisplay:10.37 W/m2 OVC
00:37 59.2 °F /  15.1 °C 58.3 °F /  14.6 °C 29.90in /  1012.4hPa NE 1.2mph /  1.9km/h 1.2mph /  1.9km/h 97% 0.00in /  0mm WeatherDisplay:10.37 W/m2 OVC
00:42 59.1 °F /  15.1 °C 58.2 °F /  14.6 °C 29.91in /  1012.8hPa NE 1.2mph /  1.9km/h   97% 0.00in /  0mm WeatherDisplay:10.37 W/m2 OVC
00:47 59.0 °F /  15 °C 58.1 °F /  14.5 °C 29.91in /  1012.8hPa NE 1.2mph /  1.9km/h   97% 0.00in /  0mm WeatherDisplay:10.37 W/m2 OVC
00:52 59.0 °F /  15 °C 58.1 °F /  14.5 °C 29.91in /  1012.8hPa Calm     97% 0.00in /  0mm WeatherDisplay:10.37 W/m2 OVC
00:57 59.1 °F /  15.1 °C 58.2 °F /  14.6 °C 29.91in /  1012.8hPa Calm     97% 0.00in /  0mm WeatherDisplay:10.37 W/m2 OVC
01:02 59.1 °F /  15.1 °C 58.2 °F /  14.6 °C 29.91in /  1012.8hPa Calm     97% 0.00in /  0mm WeatherDisplay:10.37 W/m2 OVC
01:07 59.2 °F /  15.1 °C 58.3 °F /  14.6 °C 29.92in /  1013.1hPa NE 1.2mph /  1.9km/h 1.2mph /  1.9km/h 97% 0.00in /  0mm WeatherDisplay:10.37 W/m2 OVC
01:12 59.3 °F /  15.2 °C 58.4 °F /  14.7 °C 29.92in /  1013.1hPa Calm     97% 0.00in /  0mm WeatherDisplay:10.37 W/m2 OVC
01:17 59.3 °F /  15.2 °C 58.4 °F /  14.7 °C 29.92in /  1013.1hPa Calm     97% 0.00in /  0mm WeatherDisplay:10.37 W/m2 OVC
01:22 59.3 °F /  15.2 °C 58.4 °F /  14.7 °C 29.92in /  1013.1hPa NE 1.2mph /  1.9km/h 1.2mph /  1.9km/h 97% 0.00in /  0mm WeatherDisplay:10.37 W/m2 OVC
01:27 59.2 °F /  15.1 °C 58.3 °F /  14.6 °C 29.92in /  1013.1hPa NE 2.3mph /  3.7km/h 2.3mph /  3.7km/h 97% 0.00in /  0mm WeatherDisplay:10.37 W/m2 OVC
01:32 59.1 °F /  15.1 °C 58.2 °F /  14.6 °C 29.92in /  1013.1hPa NE 2.3mph /  3.7km/h 2.3mph /  3.7km/h 97% 0.00in /  0mm WeatherDisplay:10.37 W/m2 OVC
01:37 59.0 °F /  15 °C 58.1 °F /  14.5 °C 29.92in /  1013.1hPa ENE 1.2mph /  1.9km/h 1.2mph /  1.9km/h 97% 0.00in /  0mm WeatherDisplay:10.37 W/m2 OVC
01:42 58.9 °F /  14.9 °C 58.0 °F /  14.4 °C 29.92in /  1013.1hPa ENE 2.3mph /  3.7km/h 2.3mph /  3.7km/h 97% 0.00in /  0mm WeatherDisplay:10.37 W/m2 OVC
01:47 58.8 °F /  14.9 °C 57.9 °F /  14.4 °C 29.92in /  1013.1hPa ENE 2.3mph /  3.7km/h 2.3mph /  3.7km/h 97% 0.00in /  0mm WeatherDisplay:10.37 W/m2 OVC
01:52 58.8 °F /  14.9 °C 57.9 °F /  14.4 °C 29.92in /  1013.1hPa ENE 2.0mph /  3.2km/h 2.0mph /  3.2km/h 97% 0.00in /  0mm WeatherDisplay:10.37 W/m2 OVC
01:57 58.7 °F /  14.8 °C 57.8 °F /  14.3 °C 29.92in /  1013.1hPa ENE 2.3mph /  3.7km/h 2.3mph /  3.7km/h 97% 0.00in /  0mm WeatherDisplay:10.37 W/m2 OVC
02:02 58.6 °F /  14.8 °C 57.7 °F /  14.3 °C 29.92in /  1013.1hPa East 2.3mph /  3.7km/h 2.3mph /  3.7km/h 97% 0.00in /  0mm WeatherDisplay:10.37 W/m2 OVC
02:07 58.6 °F /  14.8 °C 57.7 °F /  14.3 °C 29.92in /  1013.1hPa East 1.2mph /  1.9km/h 1.2mph /  1.9km/h 97% 0.00in /  0mm WeatherDisplay:10.37 W/m2 OVC
02:12 58.6 °F /  14.8 °C 57.7 °F /  14.3 °C 29.92in /  1013.1hPa East 2.3mph /  3.7km/h 2.3mph /  3.7km/h 97% 0.00in /  0mm WeatherDisplay:10.37 W/m2 OVC
02:17 58.5 °F /  14.7 °C 57.6 °F /  14.2 °C 29.93in /  1013.4hPa Calm     97% 0.00in /  0mm WeatherDisplay:10.37 W/m2 OVC
02:22 58.5 °F /  14.7 °C 57.6 °F /  14.2 °C 29.93in /  1013.4hPa East 2.3mph /  3.7km/h 2.3mph /  3.7km/h 97% 0.00in /  0mm WeatherDisplay:10.37 W/m2 OVC
02:27 58.5 °F /  14.7 °C 57.6 °F /  14.2 °C 29.93in /  1013.4hPa Calm     97% 0.00in /  0mm WeatherDisplay:10.37 W/m2 OVC
02:32 58.6 °F /  14.8 °C 57.7 °F /  14.3 °C 29.93in /  1013.4hPa Calm     97% 0.00in /  0mm WeatherDisplay:10.37 W/m2 OVC
02:37 58.6 °F /  14.8 °C 57.7 °F /  14.3 °C 29.93in /  1013.4hPa Calm     97% 0.00in /  0mm WeatherDisplay:10.37 W/m2 OVC
02:42 58.6 °F /  14.8 °C 57.7 °F /  14.3 °C 29.93in /  1013.4hPa East 1.2mph /  1.9km/h 1.2mph /  1.9km/h 97% 0.00in /  0mm WeatherDisplay:10.37 W/m2 OVC
02:47 58.6 °F /  14.8 °C 57.7 °F /  14.3 °C 29.93in /  1013.4hPa East 3.5mph /  5.6km/h 3.5mph /  5.6km/h 97% 0.00in /  0mm WeatherDisplay:10.37 W/m2 OVC
02:52 58.6 °F /  14.8 °C 58.0 °F /  14.4 °C 29.93in /  1013.4hPa East 3.5mph /  5.6km/h 3.5mph /  5.6km/h 98% 0.00in /  0mm WeatherDisplay:10.37 W/m2 OVC
02:57 58.5 °F /  14.7 °C 57.6 °F /  14.2 °C 29.93in /  1013.4hPa East 1.2mph /  1.9km/h 1.2mph /  1.9km/h 97% 0.00in /  0mm WeatherDisplay:10.37 W/m2 OVC
02:58 58.5 °F /  14.7 °C 57.6 °F /  14.2 °C 29.93in /  1013.4hPa East 1.2mph /  1.9km/h 1.2mph /  1.9km/h 97% 0.00in /  0mm WeatherDisplay:10.37 W/m2 OVC
03:03 58.5 °F /  14.7 °C 57.6 °F /  14.2 °C 29.93in /  1013.4hPa East 1.2mph /  1.9km/h 1.2mph /  1.9km/h 97% 0.00in /  0mm WeatherDisplay:10.37 W/m2 OVC
03:08 58.4 °F /  14.7 °C 57.5 °F /  14.2 °C 29.93in /  1013.4hPa East 3.5mph /  5.6km/h 3.5mph /  5.6km/h 97% 0.00in /  0mm WeatherDisplay:10.37 W/m2 OVC
03:13 58.4 °F /  14.7 °C 57.5 °F /  14.2 °C 29.93in /  1013.4hPa East 1.2mph /  1.9km/h 1.2mph /  1.9km/h 97% 0.00in /  0mm WeatherDisplay:10.37 W/m2 OVC
03:18 58.3 °F /  14.6 °C 57.4 °F /  14.1 °C 29.93in /  1013.4hPa East 2.3mph /  3.7km/h 2.3mph /  3.7km/h 97% 0.00in /  0mm WeatherDisplay:10.37 W/m2 OVC
03:23 58.3 °F /  14.6 °C 57.4 °F /  14.1 °C 29.93in /  1013.4hPa Calm     97% 0.00in /  0mm WeatherDisplay:10.37 W/m2 OVC
03:28 58.2 °F /  14.6 °C 57.3 °F /  14.1 °C 29.93in /  1013.4hPa East 2.3mph /  3.7km/h 2.3mph /  3.7km/h 97% 0.00in /  0mm WeatherDisplay:10.37 W/m2 OVC
03:33 58.2 °F /  14.6 °C 57.3 °F /  14.1 °C 29.93in /  1013.4hPa East 2.3mph /  3.7km/h 2.3mph /  3.7km/h 97% 0.00in /  0mm WeatherDisplay:10.37 W/m2 OVC
03:38 58.1 °F /  14.5 °C 57.2 °F /  14 °C 29.93in /  1013.4hPa East 2.3mph /  3.7km/h 2.3mph /  3.7km/h 97% 0.00in /  0mm WeatherDisplay:10.37 W/m2 OVC
03:43 58.1 °F /  14.5 °C 57.2 °F /  14 °C 29.93in /  1013.4hPa East 2.3mph /  3.7km/h 2.3mph /  3.7km/h 97% 0.00in /  0mm WeatherDisplay:10.37 W/m2 OVC
03:48 58.1 °F /  14.5 °C 57.5 °F /  14.2 °C 29.93in /  1013.4hPa East 2.3mph /  3.7km/h 2.3mph /  3.7km/h 98% 0.00in /  0mm WeatherDisplay:10.37 W/m2 OVC
03:53 58.0 °F /  14.4 °C 57.4 °F /  14.1 °C 29.93in /  1013.4hPa East 2.3mph /  3.7km/h 2.3mph /  3.7km/h 98% 0.00in /  0mm WeatherDisplay:10.37 W/m2 OVC
03:58 57.9 °F /  14.4 °C 57.0 °F /  13.9 °C 29.93in /  1013.4hPa East 2.3mph /  3.7km/h 2.3mph /  3.7km/h 97% 0.00in /  0mm WeatherDisplay:10.37 W/m2 OVC
04:03 57.8 °F /  14.3 °C 56.9 °F /  13.8 °C 29.94in /  1013.8hPa East 2.3mph /  3.7km/h 2.3mph /  3.7km/h 97% 0.00in /  0mm WeatherDisplay:10.37 W/m2 OVC
04:08 57.7 °F /  14.3 °C 56.8 °F /  13.8 °C 29.94in /  1013.8hPa East 2.3mph /  3.7km/h 2.3mph /  3.7km/h 97% 0.00in /  0mm WeatherDisplay:10.37 W/m2 OVC
04:13 57.5 °F /  14.2 °C 56.6 °F /  13.7 °C 29.94in /  1013.8hPa East 2.3mph /  3.7km/h 2.3mph /  3.7km/h 97% 0.00in /  0mm WeatherDisplay:10.37 W/m2 OVC
04:18 57.4 °F /  14.1 °C 56.5 °F /  13.6 °C 29.94in /  1013.8hPa East 1.2mph /  1.9km/h 1.2mph /  1.9km/h 97% 0.00in /  0mm WeatherDisplay:10.37 W/m2 OVC
04:23 57.3 °F /  14.1 °C 56.4 °F /  13.6 °C 29.94in /  1013.8hPa East 1.2mph /  1.9km/h 1.2mph /  1.9km/h 97% 0.00in /  0mm WeatherDisplay:10.37 W/m2 OVC
04:28 57.3 °F /  14.1 °C 56.4 °F /  13.6 °C 29.94in /  1013.8hPa Calm     97% 0.00in /  0mm WeatherDisplay:10.37 W/m2 OVC
04:33 57.2 °F /  14 °C 56.3 °F /  13.5 °C 29.94in /  1013.8hPa East 2.3mph /  3.7km/h 2.3mph /  3.7km/h 97% 0.00in /  0mm WeatherDisplay:10.37 W/m2 OVC
04:38 57.1 °F /  13.9 °C 56.2 °F /  13.4 °C 29.95in /  1014.1hPa East 2.3mph /  3.7km/h 2.3mph /  3.7km/h 97% 0.00in /  0mm WeatherDisplay:10.37 W/m2 OVC
04:43 57.1 °F /  13.9 °C 56.2 °F /  13.4 °C 29.95in /  1014.1hPa East 2.3mph /  3.7km/h 2.3mph /  3.7km/h 97% 0.00in /  0mm WeatherDisplay:10.37 W/m2 OVC
04:48 57.1 °F /  13.9 °C 56.2 °F /  13.4 °C 29.95in /  1014.1hPa East 2.3mph /  3.7km/h 2.3mph /  3.7km/h 97% 0.00in /  0mm WeatherDisplay:10.37 W/m2 OVC
04:53 57.0 °F /  13.9 °C 56.1 °F /  13.4 °C 29.95in /  1014.1hPa East 1.2mph /  1.9km/h 1.2mph /  1.9km/h 97% 0.00in /  0mm WeatherDisplay:10.37 W/m2 OVC
04:58 57.0 °F /  13.9 °C 56.4 °F /  13.6 °C 29.95in /  1014.1hPa East 1.2mph /  1.9km/h   98% 0.00in /  0mm WeatherDisplay:10.37 W/m2 OVC
05:03 57.0 °F /  13.9 °C 56.4 °F /  13.6 °C 29.95in /  1014.1hPa East 2.3mph /  3.7km/h 2.3mph /  3.7km/h 98% 0.01in /  0.25mm WeatherDisplay:10.37 W/m2 RA
05:08 56.9 °F /  13.8 °C 56.3 °F /  13.5 °C 29.95in /  1014.1hPa East 1.2mph /  1.9km/h 1.2mph /  1.9km/h 98% 0.01in /  0.25mm WeatherDisplay:10.37 W/m2 RA
05:13 56.8 °F /  13.8 °C 56.2 °F /  13.4 °C 29.96in /  1014.4hPa East 1.2mph /  1.9km/h 1.2mph /  1.9km/h 98% 0.01in /  0.25mm WeatherDisplay:10.37 W/m2 OVC
05:18 56.8 °F /  13.8 °C 55.9 °F /  13.3 °C 29.96in /  1014.4hPa East 2.3mph /  3.7km/h 2.3mph /  3.7km/h 97% 0.01in /  0.25mm WeatherDisplay:10.37 W/m2 OVC
05:23 56.7 °F /  13.7 °C 55.8 °F /  13.2 °C 29.96in /  1014.4hPa East 1.2mph /  1.9km/h 1.2mph /  1.9km/h 97% 0.01in /  0.25mm WeatherDisplay:10.37 W/m2 OVC
05:28 56.6 °F /  13.7 °C 55.7 °F /  13.2 °C 29.97in /  1014.8hPa East 2.3mph /  3.7km/h 2.3mph /  3.7km/h 97% 0.01in /  0.25mm WeatherDisplay:10.37 W/m2 OVC
05:33 56.6 °F /  13.7 °C 55.7 °F /  13.2 °C 29.97in /  1014.8hPa East 2.3mph /  3.7km/h 2.3mph /  3.7km/h 97% 0.01in /  0.25mm WeatherDisplay:10.37 W/m2 OVC
05:38 56.6 °F /  13.7 °C 55.7 °F /  13.2 °C 29.97in /  1014.8hPa East 2.3mph /  3.7km/h 2.3mph /  3.7km/h 97% 0.01in /  0.25mm WeatherDisplay:10.37 W/m2 OVC
05:43 56.5 °F /  13.6 °C 55.6 °F /  13.1 °C 29.97in /  1014.8hPa East 1.2mph /  1.9km/h 1.2mph /  1.9km/h 97% 0.01in /  0.25mm WeatherDisplay:10.37 W/m2 OVC
05:48 56.4 °F /  13.6 °C 55.8 °F /  13.2 °C 29.97in /  1014.8hPa East 3.5mph /  5.6km/h 3.5mph /  5.6km/h 98% 0.01in /  0.25mm WeatherDisplay:10.37 W/m2 OVC
05:53 56.4 °F /  13.6 °C 55.8 °F /  13.2 °C 29.98in /  1015.1hPa East 2.3mph /  3.7km/h 2.3mph /  3.7km/h 98% 0.01in /  0.25mm WeatherDisplay:10.37 W/m2 OVC
05:58 56.3 °F /  13.5 °C 55.7 °F /  13.2 °C 29.98in /  1015.1hPa Calm   0.1mph /  0.2km/h 98% 0.01in /  0.25mm WeatherDisplay:10.37 W/m2 OVC
05:59 56.3 °F /  13.5 °C 55.7 °F /  13.2 °C 29.98in /  1015.1hPa East 1.2mph /  1.9km/h 1.2mph /  1.9km/h 98% 0.01in /  0.25mm WeatherDisplay:10.37 W/m2 OVC
06:04 56.3 °F /  13.5 °C 55.7 °F /  13.2 °C 29.99in /  1015.5hPa East 3.5mph /  5.6km/h 3.5mph /  5.6km/h 98% 0.00in /  0mm WeatherDisplay:10.37 W/m2 OVC
06:09 56.1 °F /  13.4 °C 55.2 °F /  12.9 °C 29.99in /  1015.5hPa East 2.0mph /  3.2km/h 2.0mph /  3.2km/h 97% 0.00in /  0mm WeatherDisplay:10.37 W/m2 OVC
06:14 56.0 °F /  13.3 °C 55.1 °F /  12.8 °C 29.99in /  1015.5hPa East 2.3mph /  3.7km/h 2.3mph /  3.7km/h 97% 0.00in /  0mm WeatherDisplay:10.37 W/m2 OVC
06:19 55.9 °F /  13.3 °C 55.0 °F /  12.8 °C 29.98in /  1015.1hPa East 2.3mph /  3.7km/h 2.3mph /  3.7km/h 97% 0.00in /  0mm WeatherDisplay:10.37 W/m2 OVC
06:24 55.8 °F /  13.2 °C 55.2 °F /  12.9 °C 29.98in /  1015.1hPa East 2.0mph /  3.2km/h 2.0mph /  3.2km/h 98% 0.00in /  0mm WeatherDisplay:10.37 W/m2 OVC
06:29 55.7 °F /  13.2 °C 55.1 °F /  12.8 °C 29.98in /  1015.1hPa East 2.3mph /  3.7km/h 2.3mph /  3.7km/h 98% 0.00in /  0mm WeatherDisplay:10.37 W/m2 OVC
06:34 55.6 °F /  13.1 °C 55.0 °F /  12.8 °C 29.99in /  1015.5hPa East 1.2mph /  1.9km/h 1.2mph /  1.9km/h 98% 0.00in /  0mm WeatherDisplay:10.37 W/m2 OVC
06:39 55.5 °F /  13.1 °C 54.6 °F /  12.6 °C 29.99in /  1015.5hPa East 2.0mph /  3.2km/h 2.0mph /  3.2km/h 97% 0.00in /  0mm WeatherDisplay:10.37 W/m2 OVC
06:44 55.4 °F /  13 °C 54.5 °F /  12.5 °C 29.99in /  1015.5hPa East 1.2mph /  1.9km/h 1.2mph /  1.9km/h 97% 0.00in /  0mm WeatherDisplay:10.37 W/m2 OVC
06:49 55.2 °F /  12.9 °C 54.3 °F /  12.4 °C 29.99in /  1015.5hPa East 2.3mph /  3.7km/h 2.3mph /  3.7km/h 97% 0.00in /  0mm WeatherDisplay:10.37 W/m2 OVC
06:54 55.1 °F /  12.8 °C 54.5 °F /  12.5 °C 30.00in /  1015.8hPa Calm     98% 0.00in /  0mm WeatherDisplay:10.37 W/m2 OVC
06:59 55.0 °F /  12.8 °C 54.4 °F /  12.4 °C 30.00in /  1015.8hPa East 1.2mph /  1.9km/h 1.2mph /  1.9km/h 98% 0.00in /  0mm WeatherDisplay:10.37 W/m2 OVC
07:04 55.0 °F /  12.8 °C 54.4 °F /  12.4 °C 30.00in /  1015.8hPa East 2.3mph /  3.7km/h 2.3mph /  3.7km/h 98% 0.00in /  0mm WeatherDisplay:10.37 W/m2 OVC
07:05 55.0 °F /  12.8 °C 54.4 °F /  12.4 °C 30.00in /  1015.8hPa East 2.3mph /  3.7km/h 2.3mph /  3.7km/h 98% 0.00in /  0mm WeatherDisplay:10.37 W/m2 OVC
07:10 55.0 °F /  12.8 °C 54.4 °F /  12.4 °C 30.01in /  1016.1hPa East 2.3mph /  3.7km/h 2.3mph /  3.7km/h 98% 0.00in /  0mm WeatherDisplay:10.37 W/m2 OVC
07:15 55.1 °F /  12.8 °C 54.5 °F /  12.5 °C 30.01in /  1016.1hPa East 3.5mph /  5.6km/h 3.5mph /  5.6km/h 98% 0.00in /  0mm WeatherDisplay:10.37 W/m2 OVC
07:20 55.2 °F /  12.9 °C 54.6 °F /  12.6 °C 30.01in /  1016.1hPa East 2.0mph /  3.2km/h 2.0mph /  3.2km/h 98% 0.00in /  0mm WeatherDisplay:10.37 W/m2 OVC
07:25 55.2 °F /  12.9 °C 54.6 °F /  12.6 °C 30.01in /  1016.1hPa East 2.3mph /  3.7km/h 2.3mph /  3.7km/h 98% 0.00in /  0mm WeatherDisplay:10.37 W/m2 OVC
07:30 55.2 °F /  12.9 °C 54.6 °F /  12.6 °C 30.01in /  1016.1hPa East 1.2mph /  1.9km/h 1.2mph /  1.9km/h 98% 0.00in /  0mm WeatherDisplay:10.37 W/m2 OVC
07:35 55.3 °F /  12.9 °C 54.7 °F /  12.6 °C 30.02in /  1016.5hPa East 2.3mph /  3.7km/h 2.3mph /  3.7km/h 98% 0.00in /  0mm WeatherDisplay:10.37 W/m2 OVC
07:40 55.5 °F /  13.1 °C 54.9 °F /  12.7 °C 30.02in /  1016.5hPa East 2.3mph /  3.7km/h 2.3mph /  3.7km/h 98% 0.00in /  0mm WeatherDisplay:10.37 W/m2 OVC
07:45 55.5 °F /  13.1 °C 54.9 °F /  12.7 °C 30.01in /  1016.1hPa East 2.3mph /  3.7km/h 2.3mph /  3.7km/h 98% 0.00in /  0mm WeatherDisplay:10.37 W/m2 OVC
07:50 55.7 °F /  13.2 °C 55.1 °F /  12.8 °C 30.02in /  1016.5hPa East 3.5mph /  5.6km/h 3.5mph /  5.6km/h 98% 0.00in /  0mm WeatherDisplay:10.37 W/m2 OVC
07:55 55.7 °F /  13.2 °C 55.1 °F /  12.8 °C 30.02in /  1016.5hPa East 2.3mph /  3.7km/h 2.3mph /  3.7km/h 98% 0.00in /  0mm WeatherDisplay:10.37 W/m2 OVC
08:00 55.8 °F /  13.2 °C 55.2 °F /  12.9 °C 30.02in /  1016.5hPa East 2.3mph /  3.7km/h 2.3mph /  3.7km/h 98% 0.00in /  0mm WeatherDisplay:10.37 W/m2 OVC
08:05 55.9 °F /  13.3 °C 55.3 °F /  12.9 °C 30.02in /  1016.5hPa East 3.5mph /  5.6km/h 3.5mph /  5.6km/h 98% 0.00in /  0mm WeatherDisplay:10.37 W/m2 OVC
08:10 56.0 °F /  13.3 °C 55.4 °F /  13 °C 30.02in /  1016.5hPa East 3.5mph /  5.6km/h 3.5mph /  5.6km/h 98% 0.00in /  0mm WeatherDisplay:10.37 W/m2 OVC
08:15 56.1 °F /  13.4 °C 55.5 °F /  13.1 °C 30.02in /  1016.5hPa East 2.3mph /  3.7km/h 2.3mph /  3.7km/h 98% 0.00in /  0mm WeatherDisplay:10.37 W/m2 OVC
08:20 56.3 °F /  13.5 °C 55.7 °F /  13.2 °C 30.02in /  1016.5hPa East 2.3mph /  3.7km/h 2.3mph /  3.7km/h 98% 0.00in /  0mm WeatherDisplay:10.37 W/m2 OVC
08:25 56.5 °F /  13.6 °C 55.9 °F /  13.3 °C 30.02in /  1016.5hPa East 2.3mph /  3.7km/h 2.3mph /  3.7km/h 98% 0.00in /  0mm WeatherDisplay:10.37 W/m2 OVC
08:30 56.8 °F /  13.8 °C 56.2 °F /  13.4 °C 30.03in /  1016.8hPa East 2.3mph /  3.7km/h 2.3mph /  3.7km/h 98% 0.00in /  0mm WeatherDisplay:10.37 W/m2 OVC
08:35 56.8 °F /  13.8 °C 56.2 °F /  13.4 °C 30.03in /  1016.8hPa East 3.0mph /  4.8km/h 3.0mph /  4.8km/h 98% 0.00in /  0mm WeatherDisplay:10.37 W/m2 OVC
08:40 57.0 °F /  13.9 °C 56.4 °F /  13.6 °C 30.03in /  1016.8hPa East 2.3mph /  3.7km/h 2.3mph /  3.7km/h 98% 0.00in /  0mm WeatherDisplay:10.37 W/m2 OVC
08:45 57.4 °F /  14.1 °C 56.8 °F /  13.8 °C 30.03in /  1016.8hPa East 1.2mph /  1.9km/h 1.2mph /  1.9km/h 98% 0.00in /  0mm WeatherDisplay:10.37 W/m2 OVC
08:50 57.9 °F /  14.4 °C 57.3 °F /  14.1 °C 30.03in /  1016.8hPa East 2.3mph /  3.7km/h 2.3mph /  3.7km/h 98% 0.00in /  0mm WeatherDisplay:10.37 W/m2 OVC
08:55 58.2 °F /  14.6 °C 57.6 °F /  14.2 °C 30.03in /  1016.8hPa East 2.3mph /  3.7km/h 2.3mph /  3.7km/h 98% 0.00in /  0mm WeatherDisplay:10.37 W/m2 OVC
09:00 58.6 °F /  14.8 °C 58.0 °F /  14.4 °C 30.03in /  1016.8hPa East 2.3mph /  3.7km/h 2.3mph /  3.7km/h 98% 0.00in /  0mm WeatherDisplay:10.37 W/m2 OVC
09:05 58.8 °F /  14.9 °C 58.2 °F /  14.6 °C 30.04in /  1017.2hPa East 3.5mph /  5.6km/h 3.5mph /  5.6km/h 98% 0.00in /  0mm WeatherDisplay:10.37 W/m2 OVC
09:10 59.0 °F /  15 °C 58.4 °F /  14.7 °C 30.04in /  1017.2hPa East 2.3mph /  3.7km/h 2.3mph /  3.7km/h 98% 0.00in /  0mm WeatherDisplay:10.37 W/m2 OVC
09:15 59.6 °F /  15.3 °C 59.0 °F /  15 °C 30.04in /  1017.2hPa East 3.5mph /  5.6km/h 3.5mph /  5.6km/h 98% 0.00in /  0mm WeatherDisplay:10.37 W/m2 OVC
09:20 60.0 °F /  15.6 °C 59.4 °F /  15.2 °C 30.04in /  1017.2hPa East 3.5mph /  5.6km/h 3.5mph /  5.6km/h 98% 0.00in /  0mm WeatherDisplay:10.37 W/m2 OVC
09:25 60.4 °F /  15.8 °C 59.8 °F /  15.4 °C 30.04in /  1017.2hPa East 3.5mph /  5.6km/h 3.5mph /  5.6km/h 98% 0.00in /  0mm WeatherDisplay:10.37 W/m2 OVC
09:30 60.6 °F /  15.9 °C 60.0 °F /  15.6 °C 30.04in /  1017.2hPa East 3.5mph /  5.6km/h 3.5mph /  5.6km/h 98% 0.00in /  0mm WeatherDisplay:10.37 W/m2 OVC
09:35 60.9 °F /  16.1 °C 60.3 °F /  15.7 °C 30.04in /  1017.2hPa East 4.6mph /  7.4km/h 4.6mph /  7.4km/h 98% 0.00in /  0mm WeatherDisplay:10.37 W/m2 OVC
09:40 61.4 °F /  16.3 °C 60.8 °F /  16 °C 30.03in /  1016.8hPa East 3.5mph /  5.6km/h 3.5mph /  5.6km/h 98% 0.00in /  0mm WeatherDisplay:10.37 W/m2 OVC
09:45 61.7 °F /  16.5 °C 61.1 °F /  16.2 °C 30.03in /  1016.8hPa East 2.3mph /  3.7km/h 2.6mph /  4.2km/h 98% 0.00in /  0mm WeatherDisplay:10.37 W/m2 OVC
09:50 62.1 °F /  16.7 °C 61.5 °F /  16.4 °C 30.03in /  1016.8hPa East 3.5mph /  5.6km/h 3.5mph /  5.6km/h 98% 0.00in /  0mm WeatherDisplay:10.37 W/m2 OVC
09:55 62.8 °F /  17.1 °C 62.2 °F /  16.8 °C 30.03in /  1016.8hPa East 3.5mph /  5.6km/h 3.5mph /  5.6km/h 98% 0.00in /  0mm WeatherDisplay:10.37 W/m2 OVC
10:00 63.1 °F /  17.3 °C 62.5 °F /  16.9 °C 30.03in /  1016.8hPa NNE 3.5mph /  5.6km/h 3.5mph /  5.6km/h 98% 0.00in /  0mm WeatherDisplay:10.37 W/m2 OVC
10:05 63.8 °F /  17.7 °C 63.2 °F /  17.3 °C 30.03in /  1016.8hPa NNE 3.0mph /  4.8km/h 3.0mph /  4.8km/h 98% 0.00in /  0mm WeatherDisplay:10.37 W/m2 OVC
10:10 64.3 °F /  17.9 °C 63.7 °F /  17.6 °C 30.03in /  1016.8hPa NNE 2.3mph /  3.7km/h 2.3mph /  3.7km/h 98% 0.00in /  0mm WeatherDisplay:10.37 W/m2 OVC
10:11 64.4 °F /  18 °C 63.8 °F /  17.7 °C 30.03in /  1016.8hPa NNE 2.3mph /  3.7km/h 2.3mph /  3.7km/h 98% 0.00in /  0mm WeatherDisplay:10.37 W/m2 OVC
10:16 65.0 °F /  18.3 °C 64.4 °F /  18 °C 30.03in /  1016.8hPa NNE 2.0mph /  3.2km/h 2.0mph /  3.2km/h 98% 0.00in /  0mm WeatherDisplay:10.37 W/m2 OVC
10:21 65.5 °F /  18.6 °C 64.3 °F /  17.9 °C 30.03in /  1016.8hPa NNE 2.3mph /  3.7km/h 2.3mph /  3.7km/h 96% 0.00in /  0mm WeatherDisplay:10.37 W/m2 OVC
10:22 65.6 °F /  18.7 °C 64.4 °F /  18 °C 30.04in /  1017.2hPa NNE 3.5mph /  5.6km/h 3.5mph /  5.6km/h 96% 0.00in /  0mm WeatherDisplay:10.37 W/m2 SCT
10:27 66.2 °F /  19 °C 63.5 °F /  17.5 °C 30.04in /  1017.2hPa NNE 1.2mph /  1.9km/h 1.2mph /  1.9km/h 91% 0.00in /  0mm WeatherDisplay:10.37 W/m2 SCT
10:32 66.9 °F /  19.4 °C 63.5 °F /  17.5 °C 30.04in /  1017.2hPa NNE 2.3mph /  3.7km/h 2.3mph /  3.7km/h 89% 0.00in /  0mm WeatherDisplay:10.37 W/m2 SCT
10:37 67.3 °F /  19.6 °C 62.6 °F /  17 °C 30.04in /  1017.2hPa NNE 3.5mph /  5.6km/h 3.5mph /  5.6km/h 85% 0.00in /  0mm WeatherDisplay:10.37 W/m2 SCT
10:42 68.1 °F /  20.1 °C 62.0 °F /  16.7 °C 30.04in /  1017.2hPa NNE 3.5mph /  5.6km/h 3.5mph /  5.6km/h 81% 0.00in /  0mm WeatherDisplay:10.37 W/m2 CLR
10:47 68.6 °F /  20.3 °C 61.8 °F /  16.6 °C 30.04in /  1017.2hPa SW 4.0mph /  6.4km/h 4.0mph /  6.4km/h 79% 0.00in /  0mm WeatherDisplay:10.37 W/m2 CLR
11:28 74.4 °F /  23.6 °C 62.7 °F /  17.1 °C 30.04in /  1017.2hPa NNW 2.0mph /  3.2km/h 2.0mph /  3.2km/h 67% 0.00in /  0mm WeatherDisplay:10.37 W/m2 CLR
11:33 75.3 °F /  24.1 °C 60.9 °F /  16.1 °C 30.04in /  1017.2hPa WNW 3.5mph /  5.6km/h 3.5mph /  5.6km/h 61% 0.00in /  0mm WeatherDisplay:10.37 W/m2 CLR
11:38 75.2 °F /  24 °C 61.7 °F /  16.5 °C 30.04in /  1017.2hPa North 3.0mph /  4.8km/h 3.0mph /  4.8km/h 63% 0.00in /  0mm WeatherDisplay:10.37 W/m2 CLR
11:43 75.5 °F /  24.2 °C 62.0 °F /  16.7 °C 30.04in /  1017.2hPa WNW 3.5mph /  5.6km/h 3.5mph /  5.6km/h 63% 0.00in /  0mm WeatherDisplay:10.37 W/m2 CLR
11:48 75.3 °F /  24.1 °C 59.9 °F /  15.5 °C 30.04in /  1017.2hPa WNW 3.5mph /  5.6km/h 3.5mph /  5.6km/h 59% 0.00in /  0mm WeatherDisplay:10.37 W/m2 CLR
11:53 75.7 °F /  24.3 °C 58.3 °F /  14.6 °C 30.04in /  1017.2hPa WNW 3.5mph /  5.6km/h 3.5mph /  5.6km/h 55% 0.00in /  0mm WeatherDisplay:10.37 W/m2 CLR
11:58 76.2 °F /  24.6 °C 57.2 °F /  14 °C 30.04in /  1017.2hPa SSW 5.0mph /  8km/h 5.0mph /  8km/h 52% 0.00in /  0mm WeatherDisplay:10.37 W/m2 CLR
12:03 76.3 °F /  24.6 °C 58.4 °F /  14.7 °C 30.04in /  1017.2hPa West 4.0mph /  6.4km/h 4.0mph /  6.4km/h 54% 0.00in /  0mm WeatherDisplay:10.37 W/m2 CLR
12:08 75.9 °F /  24.4 °C 58.0 °F /  14.4 °C 30.04in /  1017.2hPa SW 3.5mph /  5.6km/h 3.5mph /  5.6km/h 54% 0.00in /  0mm WeatherDisplay:10.37 W/m2 CLR
12:13 75.9 °F /  24.4 °C 59.5 °F /  15.3 °C 30.04in /  1017.2hPa SSW 4.0mph /  6.4km/h 4.0mph /  6.4km/h 57% 0.00in /  0mm WeatherDisplay:10.37 W/m2 CLR
12:18 76.0 °F /  24.4 °C 59.6 °F /  15.3 °C 30.03in /  1016.8hPa NW 6.9mph /  11.1km/h 6.9mph /  11.1km/h 57% 0.00in /  0mm WeatherDisplay:10.37 W/m2 CLR
12:23 76.1 °F /  24.5 °C 58.2 °F /  14.6 °C 30.03in /  1016.8hPa West 2.3mph /  3.7km/h 2.3mph /  3.7km/h 54% 0.00in /  0mm WeatherDisplay:10.37 W/m2 CLR
12:28 76.6 °F /  24.8 °C 57.6 °F /  14.2 °C 30.03in /  1016.8hPa North 2.3mph /  3.7km/h 2.3mph /  3.7km/h 52% 0.00in /  0mm WeatherDisplay:10.37 W/m2 CLR
12:33 77.4 °F /  25.2 °C 59.9 °F /  15.5 °C 30.03in /  1016.8hPa West 2.3mph /  3.7km/h 2.3mph /  3.7km/h 55% 0.00in /  0mm WeatherDisplay:10.37 W/m2 CLR
12:38 77.4 °F /  25.2 °C 58.4 °F /  14.7 °C 30.03in /  1016.8hPa SSW 3.5mph /  5.6km/h 3.5mph /  5.6km/h 52% 0.00in /  0mm WeatherDisplay:10.37 W/m2 CLR
12:43 77.5 °F /  25.3 °C 57.9 °F /  14.4 °C 30.03in /  1016.8hPa West 2.3mph /  3.7km/h 2.3mph /  3.7km/h 51% 0.00in /  0mm WeatherDisplay:10.37 W/m2 CLR
12:48 77.4 °F /  25.2 °C 57.8 °F /  14.3 °C 30.02in /  1016.5hPa West 3.5mph /  5.6km/h 3.5mph /  5.6km/h 51% 0.00in /  0mm WeatherDisplay:10.37 W/m2 CLR
12:53 77.4 °F /  25.2 °C 59.4 °F /  15.2 °C 30.02in /  1016.5hPa NNE 3.5mph /  5.6km/h 3.5mph /  5.6km/h 54% 0.00in /  0mm WeatherDisplay:10.37 W/m2 CLR
12:58 77.8 °F /  25.4 °C 57.6 °F /  14.2 °C 30.02in /  1016.5hPa NE 3.5mph /  5.6km/h 3.5mph /  5.6km/h 50% 0.00in /  0mm WeatherDisplay:10.37 W/m2 CLR
13:03 78.9 °F /  26.1 °C 58.1 °F /  14.5 °C 30.01in /  1016.1hPa East 3.5mph /  5.6km/h 3.5mph /  5.6km/h 49% 0.00in /  0mm WeatherDisplay:10.37 W/m2 CLR
13:08 80.4 °F /  26.9 °C 59.5 °F /  15.3 °C 30.01in /  1016.1hPa NNE 3.5mph /  5.6km/h 3.5mph /  5.6km/h 49% 0.00in /  0mm WeatherDisplay:10.37 W/m2 CLR
13:13 80.1 °F /  26.7 °C 58.0 °F /  14.4 °C 30.01in /  1016.1hPa NE 5.8mph /  9.3km/h 5.8mph /  9.3km/h 47% 0.00in /  0mm WeatherDisplay:10.37 W/m2 CLR
13:18 80.4 °F /  26.9 °C 58.3 °F /  14.6 °C 30.01in /  1016.1hPa North 3.5mph /  5.6km/h 3.5mph /  5.6km/h 47% 0.00in /  0mm WeatherDisplay:10.37 W/m2 CLR
13:23 80.6 °F /  27 °C 58.5 °F /  14.7 °C 30.01in /  1016.1hPa NNE 3.5mph /  5.6km/h 3.5mph /  5.6km/h 47% 0.00in /  0mm WeatherDisplay:10.37 W/m2 CLR
13:28 80.3 °F /  26.8 °C 58.2 °F /  14.6 °C 30.01in /  1016.1hPa NE 4.6mph /  7.4km/h 4.6mph /  7.4km/h 47% 0.00in /  0mm WeatherDisplay:10.37 W/m2 CLR
13:33 80.3 °F /  26.8 °C 58.2 °F /  14.6 °C 30.00in /  1015.8hPa NE 4.6mph /  7.4km/h 4.6mph /  7.4km/h 47% 0.00in /  0mm WeatherDisplay:10.37 W/m2 CLR
13:38 80.9 °F /  27.2 °C 58.1 °F /  14.5 °C 30.00in /  1015.8hPa North 4.6mph /  7.4km/h 4.6mph /  7.4km/h 46% 0.00in /  0mm WeatherDisplay:10.37 W/m2 CLR
13:43 81.1 °F /  27.3 °C 59.5 °F /  15.3 °C 30.00in /  1015.8hPa ENE 3.5mph /  5.6km/h 3.5mph /  5.6km/h 48% 0.00in /  0mm WeatherDisplay:10.37 W/m2 CLR
13:48 82.0 °F /  27.8 °C 59.7 °F /  15.4 °C 30.00in /  1015.8hPa ENE 3.5mph /  5.6km/h 3.5mph /  5.6km/h 47% 0.00in /  0mm WeatherDisplay:10.37 W/m2 CLR
13:53 82.5 °F /  28.1 °C 57.7 °F /  14.3 °C 29.99in /  1015.5hPa NNE 4.6mph /  7.4km/h 4.6mph /  7.4km/h 43% 0.00in /  0mm WeatherDisplay:10.37 W/m2 CLR
13:58 82.2 °F /  27.9 °C 58.7 °F /  14.8 °C 29.99in /  1015.5hPa North 4.6mph /  7.4km/h 4.6mph /  7.4km/h 45% 0.00in /  0mm WeatherDisplay:10.37 W/m2 CLR
14:04 82.3 °F /  27.9 °C 57.5 °F /  14.2 °C 29.99in /  1015.5hPa NE 4.6mph /  7.4km/h 4.6mph /  7.4km/h 43% 0.00in /  0mm WeatherDisplay:10.37 W/m2 CLR
14:09 82.6 °F /  28.1 °C 59.1 °F /  15.1 °C 29.99in /  1015.5hPa NE 3.5mph /  5.6km/h 3.5mph /  5.6km/h 45% 0.00in /  0mm WeatherDisplay:10.37 W/m2 CLR
14:14 82.6 °F /  28.1 °C 59.1 °F /  15.1 °C 29.99in /  1015.5hPa NNE 9.2mph /  14.8km/h 9.2mph /  14.8km/h 45% 0.00in /  0mm WeatherDisplay:10.37 W/m2 CLR
14:19 82.2 °F /  27.9 °C 58.7 °F /  14.8 °C 29.99in /  1015.5hPa WNW 4.6mph /  7.4km/h 4.6mph /  7.4km/h 45% 0.00in /  0mm WeatherDisplay:10.37 W/m2 CLR
14:24 82.7 °F /  28.2 °C 59.2 °F /  15.1 °C 29.98in /  1015.1hPa NNE 3.5mph /  5.6km/h 3.5mph /  5.6km/h 45% 0.00in /  0mm WeatherDisplay:10.37 W/m2 CLR
14:29 83.1 °F /  28.4 °C 58.9 °F /  14.9 °C 29.98in /  1015.1hPa NNE 8.1mph /  13km/h 8.1mph /  13km/h 44% 0.00in /  0mm WeatherDisplay:10.37 W/m2 CLR
14:34 83.2 °F /  28.4 °C 59.0 °F /  15 °C 29.98in /  1015.1hPa NNE 5.8mph /  9.3km/h 5.8mph /  9.3km/h 44% 0.00in /  0mm WeatherDisplay:10.37 W/m2 CLR
14:39 83.8 °F /  28.8 °C 56.9 °F /  13.8 °C 29.98in /  1015.1hPa North 3.5mph /  5.6km/h 3.5mph /  5.6km/h 40% 0.00in /  0mm WeatherDisplay:10.37 W/m2 CLR
14:44 84.0 °F /  28.9 °C 57.7 °F /  14.3 °C 29.98in /  1015.1hPa WNW 2.3mph /  3.7km/h 2.3mph /  3.7km/h 41% 0.00in /  0mm WeatherDisplay:10.37 W/m2 CLR
14:49 84.1 °F /  28.9 °C 59.2 °F /  15.1 °C 29.98in /  1015.1hPa North 4.0mph /  6.4km/h 4.0mph /  6.4km/h 43% 0.00in /  0mm WeatherDisplay:10.37 W/m2 CLR
14:54 84.3 °F /  29.1 °C 57.3 °F /  14.1 °C 29.98in /  1015.1hPa NNE 8.1mph /  13km/h 8.1mph /  13km/h 40% 0.00in /  0mm WeatherDisplay:10.37 W/m2 CLR
14:59 84.8 °F /  29.3 °C 57.1 °F /  13.9 °C 29.98in /  1015.1hPa NW 3.5mph /  5.6km/h 3.5mph /  5.6km/h 39% 0.00in /  0mm WeatherDisplay:10.37 W/m2 CLR
15:04 84.9 °F /  29.4 °C 57.1 °F /  13.9 °C 29.97in /  1014.8hPa SW 4.0mph /  6.4km/h 4.0mph /  6.4km/h 39% 0.00in /  0mm WeatherDisplay:10.37 W/m2 CLR
15:09 84.6 °F /  29.2 °C 56.9 °F /  13.8 °C 29.97in /  1014.8hPa North 4.6mph /  7.4km/h 4.6mph /  7.4km/h 39% 0.00in /  0mm WeatherDisplay:10.37 W/m2 CLR
15:14 84.7 °F /  29.3 °C 57.0 °F /  13.9 °C 29.97in /  1014.8hPa North 1.2mph /  1.9km/h 1.2mph /  1.9km/h 39% 0.00in /  0mm WeatherDisplay:10.37 W/m2 CLR
15:19 84.8 °F /  29.3 °C 57.8 °F /  14.3 °C 29.97in /  1014.8hPa NE 10.4mph /  16.7km/h 10.4mph /  16.7km/h 40% 0.00in /  0mm WeatherDisplay:10.37 W/m2 CLR
15:24 84.9 °F /  29.4 °C 57.8 °F /  14.3 °C 29.96in /  1014.4hPa NNE 3.5mph /  5.6km/h 3.5mph /  5.6km/h 40% 0.00in /  0mm WeatherDisplay:10.37 W/m2 CLR
15:29 85.1 °F /  29.5 °C 55.9 °F /  13.3 °C 29.97in /  1014.8hPa ENE 4.6mph /  7.4km/h 4.6mph /  7.4km/h 37% 0.00in /  0mm WeatherDisplay:10.37 W/m2 CLR
15:34 86.0 °F /  30 °C 58.1 °F /  14.5 °C 29.97in /  1014.8hPa South 3.5mph /  5.6km/h 3.5mph /  5.6km/h 39% 0.00in /  0mm WeatherDisplay:10.37 W/m2 CLR
15:39 86.9 °F /  30.5 °C 58.2 °F /  14.6 °C 29.96in /  1014.4hPa SW 9.0mph /  14.5km/h 9.0mph /  14.5km/h 38% 0.00in /  0mm WeatherDisplay:10.37 W/m2 CLR
15:44 86.0 °F /  30 °C 56.7 °F /  13.7 °C 29.96in /  1014.4hPa West 5.8mph /  9.3km/h 5.8mph /  9.3km/h 37% 0.00in /  0mm WeatherDisplay:10.37 W/m2 CLR
15:49 85.8 °F /  29.9 °C 57.9 °F /  14.4 °C 29.96in /  1014.4hPa SW 3.5mph /  5.6km/h 3.5mph /  5.6km/h 39% 0.00in /  0mm WeatherDisplay:10.37 W/m2 CLR
15:54 86.0 °F /  30 °C 56.7 °F /  13.7 °C 29.96in /  1014.4hPa West 5.8mph /  9.3km/h 5.8mph /  9.3km/h 37% 0.00in /  0mm WeatherDisplay:10.37 W/m2 CLR
15:59 85.9 °F /  29.9 °C 58.0 °F /  14.4 °C 29.96in /  1014.4hPa WSW 3.5mph /  5.6km/h 3.5mph /  5.6km/h 39% 0.00in /  0mm WeatherDisplay:10.37 W/m2 CLR
16:04 86.0 °F /  30 °C 58.1 °F /  14.5 °C 29.96in /  1014.4hPa SW 4.6mph /  7.4km/h 4.6mph /  7.4km/h 39% 0.00in /  0mm WeatherDisplay:10.37 W/m2 CLR
16:09 86.1 °F /  30.1 °C 57.5 °F /  14.2 °C 29.96in /  1014.4hPa West 6.0mph /  9.7km/h 6.0mph /  9.7km/h 38% 0.00in /  0mm WeatherDisplay:10.37 W/m2 CLR
16:14 86.1 °F /  30.1 °C 56.7 °F /  13.7 °C 29.96in /  1014.4hPa West 3.5mph /  5.6km/h 3.5mph /  5.6km/h 37% 0.00in /  0mm WeatherDisplay:10.37 W/m2 CLR
16:19 86.0 °F /  30 °C 56.7 °F /  13.7 °C 29.96in /  1014.4hPa SW 6.9mph /  11.1km/h 6.9mph /  11.1km/h 37% 0.00in /  0mm WeatherDisplay:10.37 W/m2 CLR
16:24 86.5 °F /  30.3 °C 57.1 °F /  13.9 °C 29.96in /  1014.4hPa SW 5.8mph /  9.3km/h 5.8mph /  9.3km/h 37% 0.00in /  0mm WeatherDisplay:10.37 W/m2 CLR
16:29 86.6 °F /  30.3 °C 56.4 °F /  13.6 °C 29.96in /  1014.4hPa WSW 3.5mph /  5.6km/h 3.5mph /  5.6km/h 36% 0.00in /  0mm WeatherDisplay:10.37 W/m2 CLR
16:34 86.5 °F /  30.3 °C 56.3 °F /  13.5 °C 29.95in /  1014.1hPa WSW 4.6mph /  7.4km/h 4.6mph /  7.4km/h 36% 0.00in /  0mm WeatherDisplay:10.37 W/m2 CLR
16:39 86.7 °F /  30.4 °C 57.3 °F /  14.1 °C 29.95in /  1014.1hPa SW 4.6mph /  7.4km/h 4.6mph /  7.4km/h 37% 0.00in /  0mm WeatherDisplay:10.37 W/m2 CLR
16:44 86.6 °F /  30.3 °C 55.7 °F /  13.2 °C 29.95in /  1014.1hPa SW 4.0mph /  6.4km/h 4.0mph /  6.4km/h 35% 0.00in /  0mm WeatherDisplay:10.37 W/m2 CLR
16:49 86.5 °F /  30.3 °C 57.1 °F /  13.9 °C 29.95in /  1014.1hPa West 3.5mph /  5.6km/h 3.5mph /  5.6km/h 37% 0.00in /  0mm WeatherDisplay:10.37 W/m2 CLR
16:54 86.3 °F /  30.2 °C 56.2 °F /  13.4 °C 29.95in /  1014.1hPa WSW 3.5mph /  5.6km/h 3.5mph /  5.6km/h 36% 0.00in /  0mm WeatherDisplay:10.37 W/m2 CLR
16:59 86.3 °F /  30.2 °C 58.4 °F /  14.7 °C 29.95in /  1014.1hPa SW 5.8mph /  9.3km/h 5.8mph /  9.3km/h 39% 0.00in /  0mm WeatherDisplay:10.37 W/m2 CLR
17:04 86.8 °F /  30.4 °C 58.8 °F /  14.9 °C 29.95in /  1014.1hPa WSW 3.5mph /  5.6km/h 3.5mph /  5.6km/h 39% 0.00in /  0mm WeatherDisplay:10.37 W/m2 CLR
17:09 87.6 °F /  30.9 °C 56.5 °F /  13.6 °C 29.95in /  1014.1hPa South 4.6mph /  7.4km/h 4.6mph /  7.4km/h 35% 0.00in /  0mm WeatherDisplay:10.37 W/m2 CLR
17:14 87.8 °F /  31 °C 57.5 °F /  14.2 °C 29.95in /  1014.1hPa South 4.6mph /  7.4km/h 4.6mph /  7.4km/h 36% 0.00in /  0mm WeatherDisplay:10.37 W/m2 CLR
17:19 88.1 °F /  31.2 °C 56.2 °F /  13.4 °C 29.95in /  1014.1hPa SSE 3.5mph /  5.6km/h 3.5mph /  5.6km/h 34% 0.00in /  0mm WeatherDisplay:10.37 W/m2 CLR
17:24 88.7 °F /  31.5 °C 58.3 °F /  14.6 °C 29.95in /  1014.1hPa West 2.3mph /  3.7km/h 2.3mph /  3.7km/h 36% 0.00in /  0mm WeatherDisplay:10.37 W/m2 CLR
17:29 88.2 °F /  31.2 °C 57.1 °F /  13.9 °C 29.95in /  1014.1hPa WSW 2.3mph /  3.7km/h 2.3mph /  3.7km/h 35% 0.00in /  0mm WeatherDisplay:10.37 W/m2 CLR
17:34 88.2 °F /  31.2 °C 56.3 °F /  13.5 °C 29.95in /  1014.1hPa South 2.3mph /  3.7km/h 2.3mph /  3.7km/h 34% 0.00in /  0mm WeatherDisplay:10.37 W/m2 CLR
17:39 87.8 °F /  31 °C 56.7 °F /  13.7 °C 29.95in /  1014.1hPa SE 3.5mph /  5.6km/h 3.5mph /  5.6km/h 35% 0.00in /  0mm WeatherDisplay:10.37 W/m2 CLR
17:44 87.5 °F /  30.8 °C 58.7 °F /  14.8 °C 29.95in /  1014.1hPa WNW 2.3mph /  3.7km/h 2.3mph /  3.7km/h 38% 0.00in /  0mm WeatherDisplay:10.37 W/m2 CLR
17:49 87.7 °F /  30.9 °C 59.6 °F /  15.3 °C 29.95in /  1014.1hPa WNW 2.0mph /  3.2km/h 2.0mph /  3.2km/h 39% 0.00in /  0mm WeatherDisplay:10.37 W/m2 CLR
17:54 87.9 °F /  31.1 °C 57.6 °F /  14.2 °C 29.95in /  1014.1hPa West 2.3mph /  3.7km/h 2.3mph /  3.7km/h 36% 0.00in /  0mm WeatherDisplay:10.37 W/m2 CLR
17:59 88.0 °F /  31.1 °C 57.7 °F /  14.3 °C 29.95in /  1014.1hPa West 2.3mph /  3.7km/h 2.3mph /  3.7km/h 36% 0.00in /  0mm WeatherDisplay:10.37 W/m2 CLR
18:04 87.4 °F /  30.8 °C 57.9 °F /  14.4 °C 29.95in /  1014.1hPa West 2.3mph /  3.7km/h   37% 0.00in /  0mm WeatherDisplay:10.37 W/m2 CLR
18:09 87.4 °F /  30.8 °C 57.9 °F /  14.4 °C 29.95in /  1014.1hPa South 2.3mph /  3.7km/h 2.3mph /  3.7km/h 37% 0.00in /  0mm WeatherDisplay:10.37 W/m2 CLR
18:14 87.4 °F /  30.8 °C 60.1 °F /  15.6 °C 29.95in /  1014.1hPa SW 5.0mph /  8km/h 5.0mph /  8km/h 40% 0.00in /  0mm WeatherDisplay:10.37 W/m2 CLR
18:19 87.0 °F /  30.6 °C 61.1 °F /  16.2 °C 29.95in /  1014.1hPa SSE 4.6mph /  7.4km/h 4.6mph /  7.4km/h 42% 0.00in /  0mm WeatherDisplay:10.37 W/m2 CLR
18:24 86.9 °F /  30.5 °C 61.0 °F /  16.1 °C 29.95in /  1014.1hPa SSW 3.5mph /  5.6km/h 3.5mph /  5.6km/h 42% 0.00in /  0mm WeatherDisplay:10.37 W/m2 CLR
18:29 86.4 °F /  30.2 °C 61.9 °F /  16.6 °C 29.95in /  1014.1hPa ESE 4.0mph /  6.4km/h 4.0mph /  6.4km/h 44% 0.00in /  0mm WeatherDisplay:10.37 W/m2 CLR
18:34 85.7 °F /  29.8 °C 61.9 °F /  16.6 °C 29.95in /  1014.1hPa ENE 5.8mph /  9.3km/h 5.8mph /  9.3km/h 45% 0.00in /  0mm WeatherDisplay:10.37 W/m2 CLR
18:39 84.9 °F /  29.4 °C 61.8 °F /  16.6 °C 29.95in /  1014.1hPa ESE 2.3mph /  3.7km/h 2.5mph /  4km/h 46% 0.00in /  0mm WeatherDisplay:10.37 W/m2 CLR
18:44 84.2 °F /  29 °C 62.3 °F /  16.8 °C 29.95in /  1014.1hPa SE 2.3mph /  3.7km/h 2.3mph /  3.7km/h 48% 0.00in /  0mm WeatherDisplay:10.37 W/m2 CLR
18:49 83.8 °F /  28.8 °C 62.0 °F /  16.7 °C 29.95in /  1014.1hPa SSE 6.0mph /  9.7km/h 6.0mph /  9.7km/h 48% 0.00in /  0mm WeatherDisplay:10.37 W/m2 CLR
18:54 83.2 °F /  28.4 °C 62.0 °F /  16.7 °C 29.95in /  1014.1hPa ENE 3.5mph /  5.6km/h 3.5mph /  5.6km/h 49% 0.00in /  0mm WeatherDisplay:10.37 W/m2 CLR
18:59 82.6 °F /  28.1 °C 62.0 °F /  16.7 °C 29.95in /  1014.1hPa SSE 3.5mph /  5.6km/h 3.5mph /  5.6km/h 50% 0.00in /  0mm WeatherDisplay:10.37 W/m2 CLR
19:04 82.0 °F /  27.8 °C 62.0 °F /  16.7 °C 29.95in /  1014.1hPa SSW 8.1mph /  13km/h 8.1mph /  13km/h 51% 0.00in /  0mm WeatherDisplay:10.37 W/m2 CLR
19:09 81.5 °F /  27.5 °C 62.7 °F /  17.1 °C 29.95in /  1014.1hPa SSE 5.8mph /  9.3km/h 5.8mph /  9.3km/h 53% 0.00in /  0mm WeatherDisplay:10.37 W/m2 CLR
19:14 81.2 °F /  27.3 °C 62.4 °F /  16.9 °C 29.95in /  1014.1hPa SSE 2.3mph /  3.7km/h 2.3mph /  3.7km/h 53% 0.00in /  0mm WeatherDisplay:10.37 W/m2 CLR
19:19 80.9 °F /  27.2 °C 62.1 °F /  16.7 °C 29.96in /  1014.4hPa ESE 2.3mph /  3.7km/h 2.3mph /  3.7km/h 53% 0.00in /  0mm WeatherDisplay:10.37 W/m2 CLR
19:24 80.6 °F /  27 °C 62.4 °F /  16.9 °C 29.95in /  1014.1hPa Calm   0.1mph /  0.2km/h 54% 0.00in /  0mm WeatherDisplay:10.37 W/m2 CLR
19:29 80.3 °F /  26.8 °C 62.1 °F /  16.7 °C 29.96in /  1014.4hPa SE 1.2mph /  1.9km/h 1.2mph /  1.9km/h 54% 0.00in /  0mm WeatherDisplay:10.37 W/m2 CLR
19:34 80.1 °F /  26.7 °C 61.9 °F /  16.6 °C 29.96in /  1014.4hPa SE 1.2mph /  1.9km/h 1.2mph /  1.9km/h 54% 0.00in /  0mm WeatherDisplay:10.37 W/m2 CLR
19:39 79.7 °F /  26.5 °C 62.6 °F /  17 °C 29.96in /  1014.4hPa Calm     56% 0.00in /  0mm WeatherDisplay:10.37 W/m2 CLR
19:44 79.4 °F /  26.3 °C 61.8 °F /  16.6 °C 29.96in /  1014.4hPa SE 1.2mph /  1.9km/h 1.2mph /  1.9km/h 55% 0.00in /  0mm WeatherDisplay:10.37 W/m2 CLR
19:49 79.0 °F /  26.1 °C 62.4 °F /  16.9 °C 29.96in /  1014.4hPa SE 1.2mph /  1.9km/h   57% 0.00in /  0mm WeatherDisplay:10.37 W/m2 CLR
19:54 78.6 °F /  25.9 °C 62.5 °F /  16.9 °C 29.96in /  1014.4hPa Calm     58% 0.00in /  0mm WeatherDisplay:10.37 W/m2 CLR
19:59 78.1 °F /  25.6 °C 62.6 °F /  17 °C 29.97in /  1014.8hPa Calm     59% 0.00in /  0mm WeatherDisplay:10.37 W/m2 CLR
20:04 77.6 °F /  25.3 °C 62.6 °F /  17 °C 29.97in /  1014.8hPa SE 1.2mph /  1.9km/h 1.2mph /  1.9km/h 60% 0.00in /  0mm WeatherDisplay:10.37 W/m2 CLR
20:09 77.1 °F /  25.1 °C 62.1 °F /  16.7 °C 29.97in /  1014.8hPa SE 1.2mph /  1.9km/h 1.2mph /  1.9km/h 60% 0.00in /  0mm WeatherDisplay:10.37 W/m2 CLR
20:14 76.6 °F /  24.8 °C 62.6 °F /  17 °C 29.97in /  1014.8hPa SE 1.2mph /  1.9km/h 1.2mph /  1.9km/h 62% 0.00in /  0mm WeatherDisplay:10.37 W/m2 CLR
20:19 76.1 °F /  24.5 °C 62.1 °F /  16.7 °C 29.97in /  1014.8hPa Calm     62% 0.00in /  0mm WeatherDisplay:10.37 W/m2 CLR
20:24 75.6 °F /  24.2 °C 62.5 °F /  16.9 °C 29.98in /  1015.1hPa SE 1.2mph /  1.9km/h 1.2mph /  1.9km/h 64% 0.00in /  0mm WeatherDisplay:10.37 W/m2 CLR
20:29 75.1 °F /  23.9 °C 62.5 °F /  16.9 °C 29.98in /  1015.1hPa SE 1.2mph /  1.9km/h 1.2mph /  1.9km/h 65% 0.00in /  0mm WeatherDisplay:10.37 W/m2 CLR
20:34 74.6 °F /  23.7 °C 62.5 °F /  16.9 °C 29.98in /  1015.1hPa SE 1.2mph /  1.9km/h 1.2mph /  1.9km/h 66% 0.00in /  0mm WeatherDisplay:10.37 W/m2 CLR
20:39 73.9 °F /  23.3 °C 62.2 °F /  16.8 °C 29.98in /  1015.1hPa WSW 3.5mph /  5.6km/h 3.5mph /  5.6km/h 67% 0.00in /  0mm WeatherDisplay:10.37 W/m2 CLR
20:44 73.7 °F /  23.2 °C 61.2 °F /  16.2 °C 29.98in /  1015.1hPa SSE 3.5mph /  5.6km/h 3.5mph /  5.6km/h 65% 0.00in /  0mm WeatherDisplay:10.37 W/m2 CLR
20:45 73.7 °F /  23.2 °C 61.2 °F /  16.2 °C 29.98in /  1015.1hPa SSE 3.5mph /  5.6km/h 3.5mph /  5.6km/h 65% 0.00in /  0mm WeatherDisplay:10.37 W/m2 CLR
20:50 73.7 °F /  23.2 °C 61.6 °F /  16.4 °C 29.99in /  1015.5hPa SSE 1.2mph /  1.9km/h 1.2mph /  1.9km/h 66% 0.00in /  0mm WeatherDisplay:10.37 W/m2 CLR
20:55 73.4 °F /  23 °C 61.7 °F /  16.5 °C 29.99in /  1015.5hPa SSE 1.2mph /  1.9km/h 1.2mph /  1.9km/h 67% 0.00in /  0mm WeatherDisplay:10.37 W/m2 CLR
21:00 73.2 °F /  22.9 °C 61.1 °F /  16.2 °C 29.99in /  1015.5hPa South 3.5mph /  5.6km/h 3.5mph /  5.6km/h 66% 0.00in /  0mm WeatherDisplay:10.37 W/m2 CLR
21:05 73.1 °F /  22.8 °C 61.4 °F /  16.3 °C 29.99in /  1015.5hPa SSE 2.3mph /  3.7km/h 2.3mph /  3.7km/h 67% 0.00in /  0mm WeatherDisplay:10.37 W/m2 CLR
21:10 73.0 °F /  22.8 °C 61.4 °F /  16.3 °C 30.00in /  1015.8hPa SSE 2.3mph /  3.7km/h 2.3mph /  3.7km/h 67% 0.00in /  0mm WeatherDisplay:10.37 W/m2 CLR
21:15 73.2 °F /  22.9 °C 61.5 °F /  16.4 °C 30.00in /  1015.8hPa SE 3.5mph /  5.6km/h 3.5mph /  5.6km/h 67% 0.00in /  0mm WeatherDisplay:10.37 W/m2 CLR
21:20 73.4 °F /  23 °C 61.7 °F /  16.5 °C 30.00in /  1015.8hPa Calm     67% 0.00in /  0mm WeatherDisplay:10.37 W/m2 CLR
21:25 73.3 °F /  22.9 °C 62.1 °F /  16.7 °C 30.01in /  1016.1hPa Calm     68% 0.00in /  0mm WeatherDisplay:10.37 W/m2 CLR
21:30 73.0 °F /  22.8 °C 62.2 °F /  16.8 °C 30.01in /  1016.1hPa Calm     69% 0.00in /  0mm WeatherDisplay:10.37 W/m2 CLR
21:35 72.7 °F /  22.6 °C 62.3 °F /  16.8 °C 30.01in /  1016.1hPa Calm     70% 0.00in /  0mm WeatherDisplay:10.37 W/m2 CLR
Smyth Weather
Compliments of Weather Underground - 3 mb